sensor_id;sensor_type;location;lat;lon;timestamp;pressure;altitude;pressure_sealevel;temperature;humidity
51237;BME280;37312;47.550;18.818;2022-12-07T00:01:36;99031.75;;;-0.37;100.00
51237;BME280;37312;47.550;18.818;2022-12-07T00:04:02;99040.00;;;-0.32;100.00
51237;BME280;37312;47.550;18.818;2022-12-07T00:06:31;99034.56;;;-0.23;100.00
51237;BME280;37312;47.550;18.818;2022-12-07T00:08:58;99023.31;;;-0.41;100.00
51237;BME280;37312;47.550;18.818;2022-12-07T00:11:24;99025.47;;;-0.61;100.00
51237;BME280;37312;47.550;18.818;2022-12-07T00:13:53;99021.94;;;-0.78;100.00
51237;BME280;37312;47.550;18.818;2022-12-07T00:16:20;99016.63;;;-0.86;100.00
51237;BME280;37312;47.550;18.818;2022-12-07T00:18:46;99014.47;;;-0.91;100.00
51237;BME280;37312;47.550;18.818;2022-12-07T00:21:16;99005.22;;;-1.03;100.00
51237;BME280;37312;47.550;18.818;2022-12-07T00:23:42;99005.56;;;-1.06;100.00
51237;BME280;37312;47.550;18.818;2022-12-07T00:26:09;99006.38;;;-1.06;100.00
51237;BME280;37312;47.550;18.818;2022-12-07T00:28:35;98997.47;;;-0.96;100.00
51237;BME280;37312;47.550;18.818;2022-12-07T00:31:02;99001.56;;;-1.02;100.00
51237;BME280;37312;47.550;18.818;2022-12-07T00:33:27;99006.19;;;-1.12;100.00
51237;BME280;37312;47.550;18.818;2022-12-07T00:35:57;99010.31;;;-1.10;100.00
51237;BME280;37312;47.550;18.818;2022-12-07T00:38:23;99010.09;;;-1.24;100.00
51237;BME280;37312;47.550;18.818;2022-12-07T00:40:58;99005.44;;;-1.39;100.00
51237;BME280;37312;47.550;18.818;2022-12-07T00:43:24;99007.06;;;-1.46;100.00
51237;BME280;37312;47.550;18.818;2022-12-07T00:45:50;98996.53;;;-1.38;100.00
51237;BME280;37312;47.550;18.818;2022-12-07T00:48:16;98998.47;;;-1.48;100.00
51237;BME280;37312;47.550;18.818;2022-12-07T00:50:41;98998.91;;;-1.61;100.00
51237;BME280;37312;47.550;18.818;2022-12-07T00:53:07;99005.09;;;-1.44;100.00
51237;BME280;37312;47.550;18.818;2022-12-07T00:55:33;99005.81;;;-1.26;100.00
51237;BME280;37312;47.550;18.818;2022-12-07T00:57:59;98998.84;;;-1.35;100.00
51237;BME280;37312;47.550;18.818;2022-12-07T01:00:25;98994.37;;;-1.42;100.00
51237;BME280;37312;47.550;18.818;2022-12-07T01:02:50;98997.78;;;-1.50;100.00
51237;BME280;37312;47.550;18.818;2022-12-07T01:05:16;99003.31;;;-1.35;100.00
51237;BME280;37312;47.550;18.818;2022-12-07T01:07:42;98996.44;;;-1.54;100.00
51237;BME280;37312;47.550;18.818;2022-12-07T01:10:07;99004.84;;;-1.59;100.00
51237;BME280;37312;47.550;18.818;2022-12-07T01:12:33;99006.72;;;-1.51;100.00
51237;BME280;37312;47.550;18.818;2022-12-07T01:14:59;99008.97;;;-1.64;100.00
51237;BME280;37312;47.550;18.818;2022-12-07T01:17:24;99011.00;;;-1.84;100.00
51237;BME280;37312;47.550;18.818;2022-12-07T01:19:50;99007.69;;;-1.86;100.00
51237;BME280;37312;47.550;18.818;2022-12-07T01:22:16;99006.66;;;-1.94;100.00
51237;BME280;37312;47.550;18.818;2022-12-07T01:24:42;99014.44;;;-1.92;100.00
51237;BME280;37312;47.550;18.818;2022-12-07T01:27:07;99015.75;;;-1.88;100.00
51237;BME280;37312;47.550;18.818;2022-12-07T01:29:33;99015.28;;;-1.83;100.00
51237;BME280;37312;47.550;18.818;2022-12-07T01:31:59;99011.59;;;-1.64;100.00
51237;BME280;37312;47.550;18.818;2022-12-07T01:34:24;99002.00;;;-1.65;100.00
51237;BME280;37312;47.550;18.818;2022-12-07T01:36:50;99010.47;;;-1.62;100.00
51237;BME280;37312;47.550;18.818;2022-12-07T01:39:16;99002.41;;;-1.52;100.00
51237;BME280;37312;47.550;18.818;2022-12-07T01:41:42;99003.44;;;-1.45;100.00
51237;BME280;37312;47.550;18.818;2022-12-07T01:46:50;99004.19;;;-1.27;100.00
51237;BME280;37312;47.550;18.818;2022-12-07T01:49:21;98997.38;;;-1.29;100.00
51237;BME280;37312;47.550;18.818;2022-12-07T01:51:48;98998.72;;;-1.25;100.00
51237;BME280;37312;47.550;18.818;2022-12-07T01:54:15;98993.66;;;-1.10;100.00
51237;BME280;37312;47.550;18.818;2022-12-07T01:56:42;98990.47;;;-1.14;100.00
51237;BME280;37312;47.550;18.818;2022-12-07T01:59:11;98990.03;;;-0.93;100.00
51237;BME280;37312;47.550;18.818;2022-12-07T02:01:37;98984.09;;;-0.95;100.00
51237;BME280;37312;47.550;18.818;2022-12-07T02:04:02;98979.59;;;-1.02;100.00
51237;BME280;37312;47.550;18.818;2022-12-07T02:06:28;98985.09;;;-0.88;100.00
51237;BME280;37312;47.550;18.818;2022-12-07T02:08:55;98986.44;;;-0.83;100.00
51237;BME280;37312;47.550;18.818;2022-12-07T02:11:21;98979.13;;;-0.81;100.00
51237;BME280;37312;47.550;18.818;2022-12-07T02:13:47;98979.47;;;-0.85;100.00
51237;BME280;37312;47.550;18.818;2022-12-07T02:16:15;98981.94;;;-0.75;100.00
51237;BME280;37312;47.550;18.818;2022-12-07T02:37:33;98974.88;;;-0.50;100.00
51237;BME280;37312;47.550;18.818;2022-12-07T02:40:04;98971.56;;;-0.35;100.00
51237;BME280;37312;47.550;18.818;2022-12-07T02:42:44;98971.87;;;-0.22;100.00
51237;BME280;37312;47.550;18.818;2022-12-07T02:45:12;98971.06;;;-0.23;100.00
51237;BME280;37312;47.550;18.818;2022-12-07T02:47:39;98965.88;;;-0.16;100.00
51237;BME280;37312;47.550;18.818;2022-12-07T02:50:06;98965.53;;;0.04;100.00
51237;BME280;37312;47.550;18.818;2022-12-07T02:52:32;98968.47;;;0.09;100.00
51237;BME280;37312;47.550;18.818;2022-12-07T02:54:58;98963.47;;;0.22;100.00
51237;BME280;37312;47.550;18.818;2022-12-07T03:00:09;98966.63;;;0.26;100.00
51237;BME280;37312;47.550;18.818;2022-12-07T03:08:13;98962.44;;;0.31;100.00
51237;BME280;37312;47.550;18.818;2022-12-07T03:18:13;98951.63;;;0.49;100.00
51237;BME280;37312;47.550;18.818;2022-12-07T03:20:41;98951.56;;;0.66;100.00
51237;BME280;37312;47.550;18.818;2022-12-07T03:23:09;98952.31;;;0.74;100.00
51237;BME280;37312;47.550;18.818;2022-12-07T03:25:38;98952.31;;;0.74;100.00
51237;BME280;37312;47.550;18.818;2022-12-07T03:28:05;98959.09;;;0.77;100.00
51237;BME280;37312;47.550;18.818;2022-12-07T03:30:37;98961.12;;;0.75;100.00
51237;BME280;37312;47.550;18.818;2022-12-07T03:33:13;98973.84;;;0.79;100.00
51237;BME280;37312;47.550;18.818;2022-12-07T03:35:42;98977.50;;;0.78;100.00
51237;BME280;37312;47.550;18.818;2022-12-07T03:38:23;98984.06;;;0.91;100.00
51237;BME280;37312;47.550;18.818;2022-12-07T03:41:00;98983.94;;;0.84;100.00
51237;BME280;37312;47.550;18.818;2022-12-07T03:43:30;98982.13;;;0.76;100.00
51237;BME280;37312;47.550;18.818;2022-12-07T03:46:00;98975.22;;;0.67;100.00
51237;BME280;37312;47.550;18.818;2022-12-07T03:48:32;98985.31;;;0.72;100.00
51237;BME280;37312;47.550;18.818;2022-12-07T03:51:13;98985.59;;;0.77;100.00
51237;BME280;37312;47.550;18.818;2022-12-07T03:53:54;98980.00;;;0.72;100.00
51237;BME280;37312;47.550;18.818;2022-12-07T03:56:22;98978.22;;;0.64;100.00
51237;BME280;37312;47.550;18.818;2022-12-07T03:58:49;98978.38;;;0.71;100.00
51237;BME280;37312;47.550;18.818;2022-12-07T04:01:15;98983.81;;;0.77;100.00
51237;BME280;37312;47.550;18.818;2022-12-07T04:03:41;98976.91;;;0.68;100.00
51237;BME280;37312;47.550;18.818;2022-12-07T04:06:06;98987.78;;;0.73;100.00
51237;BME280;37312;47.550;18.818;2022-12-07T04:08:32;98984.31;;;0.73;100.00
51237;BME280;37312;47.550;18.818;2022-12-07T04:10:57;98981.03;;;0.71;100.00
51237;BME280;37312;47.550;18.818;2022-12-07T04:13:23;98983.22;;;0.59;100.00
51237;BME280;37312;47.550;18.818;2022-12-07T04:15:49;98981.94;;;0.47;100.00
51237;BME280;37312;47.550;18.818;2022-12-07T04:18:14;98978.63;;;0.45;100.00
51237;BME280;37312;47.550;18.818;2022-12-07T04:20:40;98982.97;;;0.46;100.00
51237;BME280;37312;47.550;18.818;2022-12-07T04:23:06;98977.50;;;0.39;100.00
51237;BME280;37312;47.550;18.818;2022-12-07T04:25:32;98980.69;;;0.34;100.00
51237;BME280;37312;47.550;18.818;2022-12-07T04:27:58;98975.69;;;0.31;100.00
51237;BME280;37312;47.550;18.818;2022-12-07T04:30:23;98974.88;;;0.31;100.00
51237;BME280;37312;47.550;18.818;2022-12-07T04:32:49;98981.84;;;0.32;100.00
51237;BME280;37312;47.550;18.818;2022-12-07T04:35:15;98985.31;;;0.32;100.00
51237;BME280;37312;47.550;18.818;2022-12-07T04:37:41;98988.78;;;0.41;100.00
51237;BME280;37312;47.550;18.818;2022-12-07T04:40:07;98978.16;;;0.41;100.00
51237;BME280;37312;47.550;18.818;2022-12-07T04:42:35;98977.66;;;0.46;100.00
51237;BME280;37312;47.550;18.818;2022-12-07T04:45:01;98977.47;;;0.47;100.00
51237;BME280;37312;47.550;18.818;2022-12-07T04:47:26;98979.78;;;0.50;100.00
51237;BME280;37312;47.550;18.818;2022-12-07T04:49:52;98974.50;;;0.50;100.00
51237;BME280;37312;47.550;18.818;2022-12-07T04:52:18;98979.44;;;0.53;100.00
51237;BME280;37312;47.550;18.818;2022-12-07T04:54:44;98969.34;;;0.49;100.00
51237;BME280;37312;47.550;18.818;2022-12-07T04:57:09;98969.75;;;0.69;100.00
51237;BME280;37312;47.550;18.818;2022-12-07T04:59:35;98960.12;;;0.68;100.00
51237;BME280;37312;47.550;18.818;2022-12-07T05:02:01;98956.63;;;0.75;100.00
51237;BME280;37312;47.550;18.818;2022-12-07T05:04:26;98959.75;;;0.79;100.00
51237;BME280;37312;47.550;18.818;2022-12-07T05:06:52;98960.25;;;0.82;100.00
51237;BME280;37312;47.550;18.818;2022-12-07T05:09:18;98956.00;;;0.96;100.00
51237;BME280;37312;47.550;18.818;2022-12-07T05:11:43;98964.31;;;0.93;100.00
51237;BME280;37312;47.550;18.818;2022-12-07T05:16:35;98968.44;;;0.96;100.00
51237;BME280;37312;47.550;18.818;2022-12-07T05:19:00;98968.38;;;1.04;100.00
51237;BME280;37312;47.550;18.818;2022-12-07T05:21:26;98967.66;;;0.87;100.00
51237;BME280;37312;47.550;18.818;2022-12-07T05:23:52;98961.41;;;0.80;100.00
51237;BME280;37312;47.550;18.818;2022-12-07T05:26:18;98977.97;;;0.82;100.00
51237;BME280;37312;47.550;18.818;2022-12-07T05:28:44;98970.72;;;0.76;100.00
51237;BME280;37312;47.550;18.818;2022-12-07T05:31:09;98965.91;;;0.79;100.00
51237;BME280;37312;47.550;18.818;2022-12-07T05:33:35;98966.56;;;0.81;100.00
51237;BME280;37312;47.550;18.818;2022-12-07T05:36:01;98965.25;;;0.77;100.00
51237;BME280;37312;47.550;18.818;2022-12-07T05:38:31;98973.53;;;0.74;100.00
51237;BME280;37312;47.550;18.818;2022-12-07T05:41:01;98971.19;;;0.79;100.00
51237;BME280;37312;47.550;18.818;2022-12-07T05:43:27;98964.41;;;0.77;100.00
51237;BME280;37312;47.550;18.818;2022-12-07T05:45:53;98971.22;;;0.71;100.00
51237;BME280;37312;47.550;18.818;2022-12-07T05:48:19;98975.53;;;0.72;100.00
51237;BME280;37312;47.550;18.818;2022-12-07T05:50:47;98962.75;;;0.76;100.00
51237;BME280;37312;47.550;18.818;2022-12-07T05:53:13;98965.94;;;0.71;100.00
51237;BME280;37312;47.550;18.818;2022-12-07T05:55:38;98962.72;;;0.84;100.00
51237;BME280;37312;47.550;18.818;2022-12-07T05:58:04;98962.59;;;0.77;100.00
51237;BME280;37312;47.550;18.818;2022-12-07T06:00:49;98973.06;;;0.71;100.00
51237;BME280;37312;47.550;18.818;2022-12-07T06:03:15;98973.38;;;0.76;100.00
51237;BME280;37312;47.550;18.818;2022-12-07T06:05:40;98969.59;;;0.70;100.00
51237;BME280;37312;47.550;18.818;2022-12-07T06:08:07;98975.13;;;0.83;100.00
51237;BME280;37312;47.550;18.818;2022-12-07T06:10:32;98974.03;;;1.01;100.00
51237;BME280;37312;47.550;18.818;2022-12-07T06:12:58;98986.72;;;0.91;100.00
51237;BME280;37312;47.550;18.818;2022-12-07T06:15:23;98975.00;;;0.77;100.00
51237;BME280;37312;47.550;18.818;2022-12-07T06:17:49;98973.34;;;0.84;100.00
51237;BME280;37312;47.550;18.818;2022-12-07T06:20:15;98969.16;;;0.90;100.00
51237;BME280;37312;47.550;18.818;2022-12-07T06:22:40;98975.13;;;0.83;100.00
51237;BME280;37312;47.550;18.818;2022-12-07T06:25:06;98975.53;;;0.72;100.00
51237;BME280;37312;47.550;18.818;2022-12-07T06:27:32;98977.19;;;0.73;100.00
51237;BME280;37312;47.550;18.818;2022-12-07T06:29:58;98980.50;;;0.75;100.00
51237;BME280;37312;47.550;18.818;2022-12-07T06:32:24;98985.13;;;0.81;100.00
51237;BME280;37312;47.550;18.818;2022-12-07T06:34:49;98979.16;;;0.79;100.00
51237;BME280;37312;47.550;18.818;2022-12-07T06:37:15;98977.31;;;0.80;100.00
51237;BME280;37312;47.550;18.818;2022-12-07T06:39:41;98980.75;;;0.89;100.00
51237;BME280;37312;47.550;18.818;2022-12-07T06:42:06;98990.03;;;0.93;100.00
51237;BME280;37312;47.550;18.818;2022-12-07T06:44:32;98994.87;;;1.12;100.00
51237;BME280;37312;47.550;18.818;2022-12-07T06:46:58;98990.09;;;1.08;100.00
51237;BME280;37312;47.550;18.818;2022-12-07T06:49:24;98987.47;;;0.99;100.00
51237;BME280;37312;47.550;18.818;2022-12-07T06:51:49;98989.66;;;0.96;100.00
51237;BME280;37312;47.550;18.818;2022-12-07T06:54:15;98999.88;;;1.07;100.00
51237;BME280;37312;47.550;18.818;2022-12-07T06:56:41;98996.41;;;1.07;100.00
51237;BME280;37312;47.550;18.818;2022-12-07T06:59:07;98987.78;;;1.04;100.00
51237;BME280;37312;47.550;18.818;2022-12-07T07:01:33;98982.00;;;1.01;100.00
51237;BME280;37312;47.550;18.818;2022-12-07T07:03:59;98981.97;;;1.09;100.00
51237;BME280;37312;47.550;18.818;2022-12-07T07:06:25;98988.91;;;1.10;100.00
51237;BME280;37312;47.550;18.818;2022-12-07T07:08:51;98988.69;;;1.20;100.00
51237;BME280;37312;47.550;18.818;2022-12-07T07:11:17;98990.34;;;1.21;100.00
51237;BME280;37312;47.550;18.818;2022-12-07T07:13:42;98995.28;;;1.24;100.00
51237;BME280;37312;47.550;18.818;2022-12-07T07:16:09;98991.97;;;1.22;100.00
51237;BME280;37312;47.550;18.818;2022-12-07T07:18:36;98989.84;;;1.17;100.00
51237;BME280;37312;47.550;18.818;2022-12-07T07:21:01;98999.09;;;1.21;100.00
51237;BME280;37312;47.550;18.818;2022-12-07T07:23:27;98999.75;;;1.23;100.00
51237;BME280;37312;47.550;18.818;2022-12-07T07:25:53;99009.16;;;1.34;100.00
51237;BME280;37312;47.550;18.818;2022-12-07T07:28:19;99005.31;;;1.37;100.00
51237;BME280;37312;47.550;18.818;2022-12-07T07:30:45;99000.13;;;1.43;100.00
51237;BME280;37312;47.550;18.818;2022-12-07T07:33:10;98996.94;;;1.48;100.00
51237;BME280;37312;47.550;18.818;2022-12-07T07:35:37;99001.22;;;1.49;100.00
51237;BME280;37312;47.550;18.818;2022-12-07T07:38:03;98999.75;;;1.46;100.00
51237;BME280;37312;47.550;18.818;2022-12-07T07:40:29;98997.69;;;1.57;100.00
51237;BME280;37312;47.550;18.818;2022-12-07T07:42:55;98997.34;;;1.60;100.00
51237;BME280;37312;47.550;18.818;2022-12-07T07:45:21;98988.66;;;1.66;100.00
51237;BME280;37312;47.550;18.818;2022-12-07T07:47:47;98993.19;;;1.80;100.00
51237;BME280;37312;47.550;18.818;2022-12-07T07:50:13;98989.91;;;1.93;100.00
51237;BME280;37312;47.550;18.818;2022-12-07T07:52:39;98986.44;;;2.07;100.00
51237;BME280;37312;47.550;18.818;2022-12-07T07:55:05;98984.16;;;2.19;100.00
51237;BME280;37312;47.550;18.818;2022-12-07T07:57:31;98988.66;;;2.34;100.00
51237;BME280;37312;47.550;18.818;2022-12-07T07:59:56;98992.03;;;2.57;100.00
51237;BME280;37312;47.550;18.818;2022-12-07T08:02:22;98993.31;;;2.76;100.00
51237;BME280;37312;47.550;18.818;2022-12-07T08:04:48;99003.56;;;3.16;100.00
51237;BME280;37312;47.550;18.818;2022-12-07T08:07:14;99005.13;;;3.46;100.00
51237;BME280;37312;47.550;18.818;2022-12-07T08:09:40;99004.97;;;3.76;100.00
51237;BME280;37312;47.550;18.818;2022-12-07T08:12:06;99003.78;;;4.07;100.00
51237;BME280;37312;47.550;18.818;2022-12-07T08:14:32;99009.50;;;4.38;100.00
51237;BME280;37312;47.550;18.818;2022-12-07T08:16:58;99006.66;;;4.81;100.00
51237;BME280;37312;47.550;18.818;2022-12-07T08:19:24;99023.84;;;5.14;100.00
51237;BME280;37312;47.550;18.818;2022-12-07T08:21:49;99031.06;;;5.33;100.00
51237;BME280;37312;47.550;18.818;2022-12-07T08:24:15;99023.91;;;5.47;100.00
51237;BME280;37312;47.550;18.818;2022-12-07T08:26:41;99030.75;;;5.83;100.00
51237;BME280;37312;47.550;18.818;2022-12-07T08:29:07;99029.97;;;6.09;100.00
51237;BME280;37312;47.550;18.818;2022-12-07T08:31:32;99025.25;;;6.18;100.00
51237;BME280;37312;47.550;18.818;2022-12-07T08:33:58;99024.00;;;6.27;100.00
51237;BME280;37312;47.550;18.818;2022-12-07T08:36:24;99023.69;;;6.68;100.00
51237;BME280;37312;47.550;18.818;2022-12-07T08:38:50;99027.06;;;7.47;100.00
51237;BME280;37312;47.550;18.818;2022-12-07T08:41:16;99022.41;;;8.18;100.00
51237;BME280;37312;47.550;18.818;2022-12-07T08:43:42;99023.81;;;7.96;100.00
51237;BME280;37312;47.550;18.818;2022-12-07T08:46:21;99036.75;;;7.48;100.00
51237;BME280;37312;47.550;18.818;2022-12-07T08:48:57;99038.19;;;7.83;100.00
51237;BME280;37312;47.550;18.818;2022-12-07T08:51:24;99031.44;;;7.73;100.00
51237;BME280;37312;47.550;18.818;2022-12-07T08:53:50;99035.06;;;7.16;100.00
51237;BME280;37312;47.550;18.818;2022-12-07T08:56:17;99024.84;;;6.93;100.00
51237;BME280;37312;47.550;18.818;2022-12-07T08:58:43;99025.50;;;6.88;100.00
51237;BME280;37312;47.550;18.818;2022-12-07T09:01:09;99029.00;;;6.82;100.00
51237;BME280;37312;47.550;18.818;2022-12-07T09:03:35;99031.81;;;7.00;100.00
51237;BME280;37312;47.550;18.818;2022-12-07T09:06:01;99030.47;;;7.23;100.00
51237;BME280;37312;47.550;18.818;2022-12-07T09:08:32;99023.19;;;7.68;100.00
51237;BME280;37312;47.550;18.818;2022-12-07T09:10:58;99023.53;;;10.59;100.00
51237;BME280;37312;47.550;18.818;2022-12-07T09:13:24;99018.13;;;11.23;100.00
51237;BME280;37312;47.550;18.818;2022-12-07T09:15:49;99032.84;;;11.61;97.20
51237;BME280;37312;47.550;18.818;2022-12-07T09:18:15;99021.66;;;12.15;97.32
51237;BME280;37312;47.550;18.818;2022-12-07T09:20:41;99030.06;;;13.62;89.74
51237;BME280;37312;47.550;18.818;2022-12-07T09:23:06;99021.22;;;15.57;75.78
51237;BME280;37312;47.550;18.818;2022-12-07T09:25:33;99021.84;;;14.11;74.40
51237;BME280;37312;47.550;18.818;2022-12-07T09:27:59;98999.66;;;11.03;84.90
51237;BME280;37312;47.550;18.818;2022-12-07T09:30:25;99016.34;;;10.17;94.18
51237;BME280;37312;47.550;18.818;2022-12-07T09:32:52;99004.75;;;9.81;98.08
51237;BME280;37312;47.550;18.818;2022-12-07T09:35:18;98997.81;;;8.83;100.00
51237;BME280;37312;47.550;18.818;2022-12-07T09:37:43;98997.31;;;7.87;100.00
51237;BME280;37312;47.550;18.818;2022-12-07T09:40:09;98987.72;;;7.03;100.00
51237;BME280;37312;47.550;18.818;2022-12-07T09:42:36;98976.78;;;6.59;100.00
51237;BME280;37312;47.550;18.818;2022-12-07T09:45:02;98977.47;;;6.35;100.00
51237;BME280;37312;47.550;18.818;2022-12-07T09:47:29;98977.91;;;6.32;100.00
51237;BME280;37312;47.550;18.818;2022-12-07T09:49:58;98991.44;;;6.50;100.00
51237;BME280;37312;47.550;18.818;2022-12-07T09:52:26;98993.47;;;6.55;100.00
51237;BME280;37312;47.550;18.818;2022-12-07T09:54:52;98997.22;;;6.47;100.00
51237;BME280;37312;47.550;18.818;2022-12-07T09:57:19;98997.00;;;6.35;100.00
51237;BME280;37312;47.550;18.818;2022-12-07T09:59:47;98996.66;;;5.98;100.00
51237;BME280;37312;47.550;18.818;2022-12-07T10:04:47;98994.53;;;5.54;100.00
51237;BME280;37312;47.550;18.818;2022-12-07T10:07:13;98991.47;;;5.43;100.00
51237;BME280;37312;47.550;18.818;2022-12-07T10:09:38;98989.41;;;5.46;100.00
51237;BME280;37312;47.550;18.818;2022-12-07T10:12:08;98989.00;;;5.62;100.00
51237;BME280;37312;47.550;18.818;2022-12-07T10:14:35;98988.41;;;5.67;100.00
51237;BME280;37312;47.550;18.818;2022-12-07T10:17:02;98983.06;;;5.67;100.00
51237;BME280;37312;47.550;18.818;2022-12-07T10:19:31;98970.75;;;5.72;100.00
51237;BME280;37312;47.550;18.818;2022-12-07T10:22:19;98968.03;;;5.85;100.00
51237;BME280;37312;47.550;18.818;2022-12-07T10:24:46;98960.44;;;6.16;100.00
51237;BME280;37312;47.550;18.818;2022-12-07T10:27:22;98963.50;;;6.13;100.00
51237;BME280;37312;47.550;18.818;2022-12-07T10:29:51;98958.59;;;6.03;100.00
51237;BME280;37312;47.550;18.818;2022-12-07T10:34:44;98964.97;;;5.75;100.00
51237;BME280;37312;47.550;18.818;2022-12-07T10:44:41;98962.19;;;6.48;100.00
51237;BME280;37312;47.550;18.818;2022-12-07T11:00:12;98955.31;;;6.08;100.00
51237;BME280;37312;47.550;18.818;2022-12-07T11:02:46;98947.91;;;5.96;100.00
51237;BME280;37312;47.550;18.818;2022-12-07T11:13:23;98954.91;;;5.71;100.00
51237;BME280;37312;47.550;18.818;2022-12-07T11:26:40;98955.91;;;5.63;100.00
51237;BME280;37312;47.550;18.818;2022-12-07T11:31:36;98947.50;;;5.66;100.00
51237;BME280;37312;47.550;18.818;2022-12-07T11:34:08;98947.91;;;5.70;100.00
51237;BME280;37312;47.550;18.818;2022-12-07T11:36:44;98957.37;;;5.59;100.00
51237;BME280;37312;47.550;18.818;2022-12-07T11:39:28;98963.72;;;5.44;100.00
51237;BME280;37312;47.550;18.818;2022-12-07T11:44:45;98953.25;;;5.43;100.00
51237;BME280;37312;47.550;18.818;2022-12-07T11:52:27;98941.34;;;5.59;100.00
51237;BME280;37312;47.550;18.818;2022-12-07T11:54:56;98936.19;;;5.57;100.00
51237;BME280;37312;47.550;18.818;2022-12-07T11:57:33;98931.91;;;5.56;100.00
51237;BME280;37312;47.550;18.818;2022-12-07T12:00:04;98926.56;;;5.56;100.00
51237;BME280;37312;47.550;18.818;2022-12-07T12:02:36;98923.66;;;5.44;100.00
51237;BME280;37312;47.550;18.818;2022-12-07T12:07:37;98906.62;;;5.46;100.00
51237;BME280;37312;47.550;18.818;2022-12-07T12:10:14;98904.56;;;5.48;100.00
51237;BME280;37312;47.550;18.818;2022-12-07T12:15:16;98908.66;;;5.37;100.00
51237;BME280;37312;47.550;18.818;2022-12-07T12:18:00;98894.50;;;5.30;100.00
51237;BME280;37312;47.550;18.818;2022-12-07T12:20:39;98899.59;;;5.44;100.00
51237;BME280;37312;47.550;18.818;2022-12-07T12:23:07;98894.06;;;5.33;100.00
51237;BME280;37312;47.550;18.818;2022-12-07T12:28:03;98903.09;;;5.12;100.00
51237;BME280;37312;47.550;18.818;2022-12-07T12:30:32;98896.50;;;5.08;100.00
51237;BME280;37312;47.550;18.818;2022-12-07T12:33:03;98894.25;;;5.05;100.00
51237;BME280;37312;47.550;18.818;2022-12-07T12:35:32;98891.78;;;5.03;100.00
51237;BME280;37312;47.550;18.818;2022-12-07T12:38:32;98889.72;;;4.98;100.00
51237;BME280;37312;47.550;18.818;2022-12-07T12:40:49;98893.19;;;4.92;100.00
51237;BME280;37312;47.550;18.818;2022-12-07T12:48:44;98887.81;;;4.79;100.00
51237;BME280;37312;47.550;18.818;2022-12-07T12:54:03;98892.31;;;4.65;100.00
51237;BME280;37312;47.550;18.818;2022-12-07T12:56:38;98887.78;;;4.59;100.00
51237;BME280;37312;47.550;18.818;2022-12-07T12:59:18;98897.00;;;4.63;100.00
51237;BME280;37312;47.550;18.818;2022-12-07T13:01:51;98905.22;;;4.55;100.00
51237;BME280;37312;47.550;18.818;2022-12-07T13:06:50;98914.25;;;4.60;100.00
51237;BME280;37312;47.550;18.818;2022-12-07T13:09:21;98911.56;;;4.60;100.00
51237;BME280;37312;47.550;18.818;2022-12-07T13:11:48;98911.97;;;4.57;100.00
51237;BME280;37312;47.550;18.818;2022-12-07T13:16:58;98905.19;;;4.48;100.00
51237;BME280;37312;47.550;18.818;2022-12-07T13:27:50;98899.84;;;4.48;100.00
51237;BME280;37312;47.550;18.818;2022-12-07T13:30:18;98893.28;;;4.51;100.00
51237;BME280;37312;47.550;18.818;2022-12-07T13:32:51;98900.00;;;4.40;100.00
51237;BME280;37312;47.550;18.818;2022-12-07T13:35:36;98907.94;;;4.27;100.00
51237;BME280;37312;47.550;18.818;2022-12-07T13:38:14;98902.78;;;4.18;100.00
51237;BME280;37312;47.550;18.818;2022-12-07T13:40:42;98903.16;;;4.15;100.00
51237;BME280;37312;47.550;18.818;2022-12-07T13:43:14;98910.78;;;4.18;100.00
51237;BME280;37312;47.550;18.818;2022-12-07T13:45:40;98910.37;;;4.22;100.00
51237;BME280;37312;47.550;18.818;2022-12-07T13:48:24;98915.09;;;4.20;100.00
51237;BME280;37312;47.550;18.818;2022-12-07T13:50:52;98923.72;;;4.22;100.00
51237;BME280;37312;47.550;18.818;2022-12-07T13:53:18;98923.72;;;4.22;100.00
51237;BME280;37312;47.550;18.818;2022-12-07T13:55:45;98914.47;;;4.17;100.00
51237;BME280;37312;47.550;18.818;2022-12-07T13:58:11;98922.28;;;4.19;100.00
51237;BME280;37312;47.550;18.818;2022-12-07T14:00:37;98923.31;;;4.25;100.00
51237;BME280;37312;47.550;18.818;2022-12-07T14:05:38;98924.94;;;4.19;100.00
51237;BME280;37312;47.550;18.818;2022-12-07T14:08:05;98919.75;;;4.11;100.00
51237;BME280;37312;47.550;18.818;2022-12-07T14:10:41;98913.97;;;4.01;100.00
51237;BME280;37312;47.550;18.818;2022-12-07T14:15:51;98921.00;;;3.80;100.00
51237;BME280;37312;47.550;18.818;2022-12-07T14:18:24;98915.94;;;3.64;100.00
51237;BME280;37312;47.550;18.818;2022-12-07T14:20:51;98918.19;;;3.60;100.00
51237;BME280;37312;47.550;18.818;2022-12-07T14:23:27;98910.16;;;3.53;100.00
51237;BME280;37312;47.550;18.818;2022-12-07T14:25:53;98912.31;;;3.43;100.00
51237;BME280;37312;47.550;18.818;2022-12-07T14:28:32;98911.69;;;3.41;100.00
51237;BME280;37312;47.550;18.818;2022-12-07T14:30:58;98908.12;;;3.34;100.00
51237;BME280;37312;47.550;18.818;2022-12-07T14:33:24;98910.75;;;3.27;100.00
51237;BME280;37312;47.550;18.818;2022-12-07T14:35:50;98907.19;;;3.20;100.00
51237;BME280;37312;47.550;18.818;2022-12-07T14:38:20;98914.94;;;3.15;100.00
51237;BME280;37312;47.550;18.818;2022-12-07T14:40:48;98919.37;;;3.08;100.00
51237;BME280;37312;47.550;18.818;2022-12-07T14:43:15;98930.78;;;3.02;100.00
51237;BME280;37312;47.550;18.818;2022-12-07T14:45:41;98924.31;;;2.89;100.00
51237;BME280;37312;47.550;18.818;2022-12-07T14:48:07;98931.59;;;2.81;100.00
51237;BME280;37312;47.550;18.818;2022-12-07T14:50:35;98933.97;;;2.76;100.00
51237;BME280;37312;47.550;18.818;2022-12-07T14:53:03;98927.09;;;2.66;100.00
51237;BME280;37312;47.550;18.818;2022-12-07T14:55:30;98931.34;;;2.61;100.00
51237;BME280;37312;47.550;18.818;2022-12-07T14:57:57;98935.13;;;2.52;100.00
51237;BME280;37312;47.550;18.818;2022-12-07T15:00:24;98929.53;;;2.46;100.00